Kansas City, MO

11:51 AM CST on December 22, 2014 (GMT -0600)
Westheight | Change Station
CLOSE
Current Station
Personal Weather Station
Location: Kansas City, KS
Elevation: 893 ft
Nearby Weather Stations

Elev 893 ft 39.12 °N, 94.65 °W | Updated 3 minutes ago

Overcast
Overcast
43.5 °F
Feels Like 44 °F
N
0.0
Wind Variable Wind from South
Gusts 0.0 mph

Today
High -- | Low -- °F
--% Chance of Precip.
Yesterday
High -- | Low -- °F
Precip. -- in
7:34 AM 4:59 PM
New Moon, 1% visible
Pressure 29.56 in
Visibility 7.0 miles
Clouds Overcast 800 ft
Windchill 44 °F
Dew Point 39 °F
Humidity 85%
Rainfall 0.04 in
Snow Depth Not available.
UV 1 out of 12
Pollen .10 out of 12
Air Quality Not available.
Flu Activity Not available.
METAR KMKC 221654Z 18009KT 7SM OVC008 07/06 A2955 RMK AO2 RAE29 SLP009 P0000 T00720056

More Conditions Fewer Conditions

Pressure 29.56 in
Visibility 7.0 miles
Clouds Overcast 800 ft
Windchill 44 °F
Dew Point 39 °F
Humidity 85%
Rainfall 0.04 in
Snow Depth Not available.
UV 1 out of 12
Pollen .10 out of 12
Air Quality Not available.
Flu Activity Not available.
METAR KMKC 221654Z 18009KT 7SM OVC008 07/06 A2955 RMK AO2 RAE29 SLP009 P0000 T00720056

More Conditions Fewer Conditions

10-Day Weather Forecast

Almanac

Astronomy

Dec. 22, 2014 Rise Set
Actual Time
Civil Twilight
Nautical Twilight
Astronomical Twilight
Moon
Length of Visible Light
Length of Day
Tomorrow will be .
, % of the Moon is Illuminated

Today's Extremes

State Highs State Lows

Community

WunderPhotos

Upload Photos

1,779,655 photos uploaded!

WunderBlogs® & News

Nearby

Air Quality

  Air Quality AQ Index Pollutant
Not available.

Snow Depth

Station Depth Elevation

Earthquake Activity

City Distance Mag. Time & Date
Minimum magnitude displayed is 2.5.

Coastal Water Temperatures

Place Temperature

Nearby Weather Stations